createdAt,value
2018-03-28T00:02:25.329Z,98572.97
2018-03-28T00:04:54.605Z,98570.75
2018-03-28T00:07:23.552Z,98563.42
2018-03-28T00:09:52.797Z,98577.08
2018-03-28T00:12:21.997Z,98573.44
2018-03-28T00:14:50.727Z,98578.89
2018-03-28T00:17:19.350Z,98575.91
2018-03-28T00:19:49.098Z,98567.58
2018-03-28T00:22:18.234Z,98562.64
2018-03-28T00:24:48.272Z,98566.59
2018-03-28T00:27:17.272Z,98556.19
2018-03-28T00:29:46.005Z,98561.20
2018-03-28T00:32:15.012Z,98554.21
2018-03-28T00:34:43.746Z,98555.95
2018-03-28T00:37:12.389Z,98557.73
2018-03-28T00:39:41.955Z,98554.39
2018-03-28T00:42:12.356Z,98553.80
2018-03-28T00:44:41.861Z,98554.21
2018-03-28T00:47:11.045Z,98550.94
2018-03-28T00:49:40.780Z,98551.02
2018-03-28T00:52:09.896Z,98545.28
2018-03-28T00:54:38.493Z,98546.66
2018-03-28T00:57:07.299Z,98544.39
2018-03-28T00:59:36.492Z,98542.25
2018-03-28T01:02:05.763Z,98547.66
2018-03-28T01:04:35.174Z,98548.20
2018-03-28T01:07:04.689Z,98543.83
2018-03-28T01:09:34.127Z,98537.72
2018-03-28T01:12:04.059Z,98532.66
2018-03-28T01:14:33.829Z,98528.84
2018-03-28T01:17:02.662Z,98530.70
2018-03-28T01:19:32.444Z,98531.59
2018-03-28T01:22:01.088Z,98527.39
2018-03-28T01:24:30.123Z,98536.85
2018-03-28T01:26:58.910Z,98529.18
2018-03-28T01:29:29.796Z,98522.92
2018-03-28T01:31:58.841Z,98525.25
2018-03-28T01:34:29.872Z,98519.70
2018-03-28T01:36:58.903Z,98518.50
2018-03-28T01:39:27.990Z,98521.02
2018-03-28T01:41:57.019Z,98517.86
2018-03-28T01:44:25.726Z,98518.55
2018-03-28T01:46:54.634Z,98511.75
2018-03-28T01:49:24.256Z,98515.32
2018-03-28T01:51:53.300Z,98515.34
2018-03-28T01:54:22.725Z,98518.22
2018-03-28T01:56:51.355Z,98512.81
2018-03-28T01:59:19.928Z,98506.63
2018-03-28T02:01:49.107Z,98509.52
2018-03-28T02:04:19.603Z,98506.86
2018-03-28T02:06:48.926Z,98500.58
2018-03-28T02:09:18.410Z,98487.94
2018-03-28T02:11:47.916Z,98490.15
2018-03-28T02:14:16.637Z,98489.37
2018-03-28T02:16:45.987Z,98482.00
2018-03-28T02:19:15.095Z,98481.81
2018-03-28T02:21:44.195Z,98477.53
2018-03-28T02:24:13.844Z,98472.35
2018-03-28T02:26:42.947Z,98470.26
2018-03-28T02:29:12.728Z,98465.12
2018-03-28T02:31:43.143Z,98464.14
2018-03-28T02:34:11.945Z,98469.05
2018-03-28T02:36:41.068Z,98460.41
2018-03-28T02:39:10.986Z,98464.62
2018-03-28T02:41:40.828Z,98460.27
2018-03-28T02:44:09.468Z,98453.75
2018-03-28T02:46:38.128Z,98456.14
2018-03-28T02:49:06.753Z,98452.95
2018-03-28T02:51:35.845Z,98461.49
2018-03-28T02:54:04.536Z,98461.64
2018-03-28T02:56:34.261Z,98460.34
2018-03-28T02:59:04.499Z,98459.41
2018-03-28T03:01:33.993Z,98453.06
2018-03-28T03:04:02.780Z,98451.19
2018-03-28T03:06:31.587Z,98454.10
2018-03-28T03:09:00.631Z,98444.98
2018-03-28T03:11:29.952Z,98445.83
2018-03-28T03:13:59.108Z,98446.14
2018-03-28T03:16:29.099Z,98443.23
2018-03-28T03:18:59.218Z,98442.27
2018-03-28T03:21:27.754Z,98446.44
2018-03-28T03:23:56.364Z,98446.97
2018-03-28T03:26:25.322Z,98445.09
2018-03-28T03:28:55.258Z,98443.70
2018-03-28T03:31:25.230Z,98441.81
2018-03-28T03:33:53.890Z,98437.60
2018-03-28T03:36:22.830Z,98437.33
2018-03-28T03:38:51.472Z,98439.94
2018-03-28T03:41:20.917Z,98442.23
2018-03-28T03:43:49.455Z,98443.66
2018-03-28T03:46:18.119Z,98446.30
2018-03-28T03:48:47.302Z,98443.11
2018-03-28T03:51:16.095Z,98452.97
2018-03-28T03:53:44.936Z,98458.45
2018-03-28T03:56:14.363Z,98456.73
2018-03-28T03:58:43.721Z,98461.44
2018-03-28T04:01:12.691Z,98461.64
2018-03-28T04:03:41.254Z,98455.98
2018-03-28T04:06:10.547Z,98451.88
2018-03-28T04:08:39.344Z,98448.51
2018-03-28T04:11:08.517Z,98452.03
2018-03-28T04:13:37.116Z,98455.89
2018-03-28T04:16:06.585Z,98449.00
2018-03-28T04:18:36.082Z,98453.64
2018-03-28T04:21:05.014Z,98452.88
2018-03-28T04:23:33.589Z,98449.58
2018-03-28T04:26:02.371Z,98456.33
2018-03-28T04:28:31.116Z,98467.31
2018-03-28T04:31:00.015Z,98480.30
2018-03-28T04:33:28.707Z,98483.13
2018-03-28T04:35:58.885Z,98474.32
2018-03-28T04:38:28.063Z,98482.94
2018-03-28T04:40:57.246Z,98491.98
2018-03-28T04:43:26.234Z,98489.22
2018-03-28T04:45:55.297Z,98488.27
2018-03-28T04:48:25.047Z,98497.19
2018-03-28T04:50:54.418Z,98494.85
2018-03-28T04:53:23.321Z,98492.48
2018-03-28T04:55:52.200Z,98485.31
2018-03-28T04:58:21.911Z,98498.64
2018-03-28T05:00:52.007Z,98502.13
2018-03-28T05:03:21.899Z,98500.83
2018-03-28T05:05:50.933Z,98504.36
2018-03-28T05:08:20.497Z,98510.26
2018-03-28T05:10:49.165Z,98499.72
2018-03-28T05:13:17.866Z,98503.02
2018-03-28T05:15:49.205Z,98512.33
2018-03-28T05:18:18.347Z,98513.74
2018-03-28T05:20:47.906Z,98514.63
2018-03-28T05:23:17.512Z,98513.17
2018-03-28T05:25:47.955Z,98511.67
2018-03-28T05:28:17.153Z,98517.55
2018-03-28T05:30:46.774Z,98527.23
2018-03-28T05:33:16.240Z,98524.63
2018-03-28T05:35:45.005Z,98530.33
2018-03-28T05:38:15.746Z,98528.34
2018-03-28T05:40:44.954Z,98526.09
2018-03-28T05:43:14.077Z,98536.93
2018-03-28T05:45:43.001Z,98551.23
2018-03-28T05:48:12.787Z,98548.55
2018-03-28T05:50:41.723Z,98543.13
2018-03-28T05:53:10.484Z,98550.06
2018-03-28T05:55:39.333Z,98544.04
2018-03-28T05:58:08.721Z,98542.42
2018-03-28T06:00:38.167Z,98542.64
2018-03-28T06:03:07.190Z,98542.33
2018-03-28T06:05:36.413Z,98538.70
2018-03-28T06:08:05.829Z,98538.78
2018-03-28T06:10:35.799Z,98536.27
2018-03-28T06:13:04.668Z,98541.73
2018-03-28T06:15:34.214Z,98537.86
2018-03-28T06:18:03.867Z,98533.13
2018-03-28T06:20:33.061Z,98535.13
2018-03-28T06:23:02.047Z,98528.38
2018-03-28T06:25:30.938Z,98534.57
2018-03-28T06:27:59.667Z,98531.30
2018-03-28T06:30:30.003Z,98534.07
2018-03-28T06:32:58.811Z,98540.72
2018-03-28T06:35:28.061Z,98543.00
2018-03-28T06:37:58.505Z,98545.56
2018-03-28T06:40:29.051Z,98548.94
2018-03-28T06:42:57.891Z,98542.16
2018-03-28T06:45:27.827Z,98531.91
2018-03-28T06:48:00.330Z,98537.13
2018-03-28T06:50:30.310Z,98537.30
2018-03-28T06:52:59.209Z,98534.42
2018-03-28T06:55:28.807Z,98540.13
2018-03-28T06:57:57.888Z,98538.89
2018-03-28T07:00:27.500Z,98538.13
2018-03-28T07:02:56.714Z,98537.42
2018-03-28T07:05:28.375Z,98541.58
2018-03-28T07:07:57.106Z,98543.46
2018-03-28T07:10:26.749Z,98543.58
2018-03-28T07:12:55.740Z,98551.99
2018-03-28T07:15:25.091Z,98544.84
2018-03-28T07:17:54.411Z,98543.37
2018-03-28T07:20:23.551Z,98544.49
2018-03-28T07:22:52.473Z,98541.71
2018-03-28T07:25:22.800Z,98543.01
2018-03-28T07:27:53.175Z,98551.20
2018-03-28T07:30:22.501Z,98549.30
2018-03-28T07:32:52.498Z,98554.77
2018-03-28T07:35:21.442Z,98549.56
2018-03-28T07:37:51.429Z,98546.30
2018-03-28T07:40:21.173Z,98548.52
2018-03-28T07:42:50.250Z,98545.25
2018-03-28T07:45:18.990Z,98547.58
2018-03-28T07:47:47.770Z,98548.56
2018-03-28T07:50:17.419Z,98547.48
2018-03-28T07:52:46.547Z,98541.62
2018-03-28T07:55:17.231Z,98544.16
2018-03-28T07:57:48.136Z,98549.00
2018-03-28T08:00:17.026Z,98542.38
2018-03-28T08:02:45.749Z,98545.06
2018-03-28T08:05:15.473Z,98545.01
2018-03-28T08:07:44.907Z,98548.30
2018-03-28T08:10:13.568Z,98546.45
2018-03-28T08:12:43.655Z,98550.00
2018-03-28T08:15:12.486Z,98563.56
2018-03-28T08:17:41.523Z,98553.49
2018-03-28T08:20:10.352Z,98555.67
2018-03-28T08:22:40.782Z,98557.42
2018-03-28T08:25:10.517Z,98547.58
2018-03-28T08:27:40.472Z,98556.64
2018-03-28T08:30:09.267Z,98546.27
2018-03-28T08:32:38.814Z,98547.16
2018-03-28T08:35:08.073Z,98559.87
2018-03-28T08:37:36.705Z,98553.67
2018-03-28T08:40:05.382Z,98562.08
2018-03-28T08:42:33.953Z,98560.00
2018-03-28T08:45:03.599Z,98558.29
2018-03-28T08:47:34.001Z,98565.19
2018-03-28T08:50:03.309Z,98564.78
2018-03-28T08:52:32.876Z,98564.43
2018-03-28T08:55:02.054Z,98568.14
2018-03-28T08:57:30.794Z,98559.78
2018-03-28T08:59:59.496Z,98546.92
2018-03-28T09:02:28.992Z,98550.52
2018-03-28T09:04:58.033Z,98558.27
2018-03-28T09:07:28.302Z,98554.00
2018-03-28T09:09:57.529Z,98544.95
2018-03-28T09:12:26.244Z,98550.41
2018-03-28T09:14:55.290Z,98554.70
2018-03-28T09:17:25.526Z,98555.36
2018-03-28T09:19:55.707Z,98549.34
2018-03-28T09:22:25.223Z,98554.34
2018-03-28T09:24:54.629Z,98547.11
2018-03-28T09:27:23.553Z,98545.48
2018-03-28T09:29:53.435Z,98540.53
2018-03-28T09:32:23.702Z,98540.09
2018-03-28T09:34:52.551Z,98543.84
2018-03-28T09:37:21.541Z,98535.40
2018-03-28T09:39:50.676Z,98539.43
2018-03-28T09:42:21.542Z,98540.81
2018-03-28T09:44:52.846Z,98539.22
2018-03-28T09:47:22.176Z,98546.47
2018-03-28T09:49:51.276Z,98528.64
2018-03-28T09:52:20.206Z,98534.45
2018-03-28T09:54:50.417Z,98531.75
2018-03-28T09:57:19.332Z,98529.11
2018-03-28T09:59:49.028Z,98526.65
2018-03-28T10:02:18.650Z,98522.48
2018-03-28T10:04:50.213Z,98525.08
2018-03-28T10:07:20.726Z,98524.14
2018-03-28T10:09:49.672Z,98532.30
2018-03-28T10:12:19.024Z,98527.66
2018-03-28T10:14:48.378Z,98514.80
2018-03-28T10:17:19.053Z,98513.89
2018-03-28T10:19:47.791Z,98510.68
2018-03-28T10:22:17.356Z,98508.78
2018-03-28T10:24:46.476Z,98514.92
2018-03-28T10:27:15.196Z,98509.91
2018-03-28T10:29:45.327Z,98517.45
2018-03-28T10:32:14.676Z,98509.04
2018-03-28T10:34:44.288Z,98502.68
2018-03-28T10:37:13.439Z,98495.05
2018-03-28T10:39:43.310Z,98486.47
2018-03-28T10:42:11.874Z,98482.51
2018-03-28T10:44:40.942Z,98478.92
2018-03-28T10:47:10.075Z,98477.30
2018-03-28T10:49:39.193Z,98475.83
2018-03-28T10:52:07.946Z,98472.37
2018-03-28T10:54:37.718Z,98475.17
2018-03-28T10:57:07.531Z,98471.66
2018-03-28T10:59:36.385Z,98469.97
2018-03-28T11:02:06.318Z,98472.28
2018-03-28T11:04:38.682Z,98455.63
2018-03-28T11:07:08.110Z,98463.14
2018-03-28T11:09:36.903Z,98455.16
2018-03-28T11:12:05.964Z,98457.55
2018-03-28T11:14:34.668Z,98458.98
2018-03-28T11:17:04.125Z,98457.44
2018-03-28T11:19:33.644Z,98453.97
2018-03-28T11:22:02.302Z,98448.89
2018-03-28T11:24:31.069Z,98442.88
2018-03-28T11:27:02.619Z,98453.50
2018-03-28T11:29:32.175Z,98448.47
2018-03-28T11:32:01.268Z,98450.69
2018-03-28T11:34:30.745Z,98451.88
2018-03-28T11:36:59.497Z,98441.20
2018-03-28T11:39:28.726Z,98438.56
2018-03-28T11:41:57.658Z,98431.36
2018-03-28T11:44:26.443Z,98431.37
2018-03-28T11:46:55.466Z,98427.14
2018-03-28T11:49:26.216Z,98425.64
2018-03-28T11:51:55.202Z,98423.39
2018-03-28T11:54:23.961Z,98419.42
2018-03-28T11:56:55.871Z,98421.61
2018-03-28T11:59:25.635Z,98409.94
2018-03-28T12:01:54.706Z,98410.95
2018-03-28T12:04:23.969Z,98400.05
2018-03-28T12:06:52.662Z,98393.25
2018-03-28T12:09:21.825Z,98395.10
2018-03-28T12:11:50.666Z,98383.43
2018-03-28T12:14:19.587Z,98383.70
2018-03-28T12:16:48.746Z,98379.77
2018-03-28T12:19:18.309Z,98390.09
2018-03-28T12:21:47.516Z,98387.92
2018-03-28T12:24:17.589Z,98389.88
2018-03-28T12:26:47.914Z,98384.66
2018-03-28T12:29:17.217Z,98392.73
2018-03-28T12:31:45.871Z,98385.87
2018-03-28T12:34:15.213Z,98377.44
2018-03-28T12:36:44.257Z,98383.30
2018-03-28T12:39:13.574Z,98385.44
2018-03-28T12:44:35.281Z,98376.14
2018-03-28T12:47:05.318Z,98369.91
2018-03-28T12:49:33.934Z,98372.52
2018-03-28T12:52:02.746Z,98361.10
2018-03-28T12:54:31.390Z,98348.22
2018-03-28T12:59:53.939Z,98351.26
2018-03-28T13:02:23.421Z,98353.64
2018-03-28T13:04:52.109Z,98356.94
2018-03-28T13:07:21.141Z,98346.28
2018-03-28T13:09:49.780Z,98340.61
2018-03-28T13:12:20.823Z,98339.47
2018-03-28T13:14:50.477Z,98352.85
2018-03-28T13:17:21.096Z,98342.55
2018-03-28T13:19:49.772Z,98346.17
2018-03-28T13:22:22.151Z,98348.73
2018-03-28T13:24:51.713Z,98344.38
2018-03-28T13:27:20.538Z,98340.56
2018-03-28T13:29:49.150Z,98341.19
2018-03-28T13:32:17.898Z,98342.65
2018-03-28T13:34:47.343Z,98342.11
2018-03-28T13:37:16.361Z,98339.52
2018-03-28T13:39:45.057Z,98332.02
2018-03-28T13:42:14.803Z,98326.61
2018-03-28T13:44:43.821Z,98330.66
2018-03-28T13:47:12.479Z,98328.42
2018-03-28T13:49:41.147Z,98325.66
2018-03-28T13:52:09.778Z,98317.27
2018-03-28T13:54:38.388Z,98311.79
2018-03-28T13:57:06.983Z,98314.90
2018-03-28T13:59:35.644Z,98318.66
2018-03-28T14:02:04.323Z,98332.47
2018-03-28T14:04:33.727Z,98319.41
2018-03-28T14:07:02.775Z,98316.94
2018-03-28T14:09:32.284Z,98326.97
2018-03-28T14:12:01.070Z,98316.33
2018-03-28T14:14:30.365Z,98305.79
2018-03-28T14:16:59.617Z,98308.31
2018-03-28T14:19:28.303Z,98311.78
2018-03-28T14:21:57.717Z,98308.17
2018-03-28T14:24:26.377Z,98299.55
2018-03-28T14:26:55.797Z,98290.16
2018-03-28T14:29:24.614Z,98290.23
2018-03-28T14:31:54.070Z,98293.77
2018-03-28T14:34:23.279Z,98286.35
2018-03-28T14:36:51.931Z,98278.79
2018-03-28T14:39:20.524Z,98278.14
2018-03-28T14:41:49.198Z,98279.04
2018-03-28T14:44:18.394Z,98266.45
2018-03-28T14:46:47.630Z,98265.10
2018-03-28T14:49:17.175Z,98275.96
2018-03-28T14:51:45.800Z,98269.88
2018-03-28T14:54:14.585Z,98274.30
2018-03-28T14:56:43.201Z,98264.77
2018-03-28T14:59:12.769Z,98259.88
2018-03-28T15:01:41.457Z,98252.03
2018-03-28T15:04:10.125Z,98248.50
2018-03-28T15:06:38.893Z,98249.08
2018-03-28T15:09:08.741Z,98242.70
2018-03-28T15:11:38.115Z,98245.52
2018-03-28T15:14:07.122Z,98240.46
2018-03-28T15:16:37.447Z,98238.53
2018-03-28T15:19:06.266Z,98240.18
2018-03-28T15:21:34.936Z,98239.06
2018-03-28T15:24:04.413Z,98236.66
2018-03-28T15:26:33.217Z,98233.35
2018-03-28T15:29:02.282Z,98237.41
2018-03-28T15:31:30.998Z,98239.09
2018-03-28T15:33:59.669Z,98241.78
2018-03-28T15:36:28.434Z,98233.84
2018-03-28T15:38:57.245Z,98233.83
2018-03-28T15:41:26.494Z,98236.14
2018-03-28T15:43:55.373Z,98232.02
2018-03-28T15:46:24.837Z,98229.38
2018-03-28T15:48:54.682Z,98234.89
2018-03-28T15:51:23.461Z,98237.40
2018-03-28T15:53:52.341Z,98231.30
2018-03-28T15:56:22.320Z,98234.20
2018-03-28T15:58:51.357Z,98240.55
2018-03-28T16:01:20.262Z,98244.56
2018-03-28T16:03:49.412Z,98252.39
2018-03-28T16:06:19.084Z,98240.91
2018-03-28T16:08:47.980Z,98241.54
2018-03-28T16:11:17.102Z,98252.91
2018-03-28T16:13:46.477Z,98245.50
2018-03-28T16:16:16.742Z,98235.97
2018-03-28T16:18:47.347Z,98233.83
2018-03-28T16:21:17.668Z,98233.47
2018-03-28T16:23:46.725Z,98239.41
2018-03-28T16:26:19.191Z,98239.73
2018-03-28T16:28:48.257Z,98236.28
2018-03-28T16:31:17.655Z,98245.18
2018-03-28T16:33:47.484Z,98243.44
2018-03-28T16:36:16.837Z,98252.92
2018-03-28T16:38:46.048Z,98251.66
2018-03-28T16:41:16.319Z,98241.95
2018-03-28T16:43:45.325Z,98240.09
2018-03-28T16:46:14.231Z,98255.69
2018-03-28T16:48:44.010Z,98234.35
2018-03-28T16:51:13.046Z,98240.45
2018-03-28T16:53:42.085Z,98237.30
2018-03-28T16:56:11.352Z,98245.95
2018-03-28T16:58:40.379Z,98246.63
2018-03-28T17:01:09.480Z,98252.06
2018-03-28T17:03:38.555Z,98243.97
2018-03-28T17:06:08.454Z,98247.77
2018-03-28T17:08:38.110Z,98244.34
2018-03-28T17:11:08.454Z,98250.05
2018-03-28T17:13:38.208Z,98244.33
2018-03-28T17:16:07.289Z,98242.05
2018-03-28T17:18:36.417Z,98244.58
2018-03-28T17:21:05.475Z,98246.56
2018-03-28T17:23:34.637Z,98245.02
2018-03-28T17:26:04.510Z,98245.75
2018-03-28T17:28:33.619Z,98244.38
2018-03-28T17:31:03.559Z,98241.92
2018-03-28T17:33:33.087Z,98247.94
2018-03-28T17:36:02.621Z,98250.02
2018-03-28T17:38:32.135Z,98248.45
2018-03-28T17:41:01.320Z,98250.02
2018-03-28T17:43:30.459Z,98257.03
2018-03-28T17:45:59.431Z,98255.67
2018-03-28T17:48:28.543Z,98259.57
2018-03-28T17:50:57.851Z,98266.81
2018-03-28T17:53:27.228Z,98266.86
2018-03-28T17:55:56.205Z,98271.21
2018-03-28T17:58:25.301Z,98279.81
2018-03-28T18:00:54.548Z,98274.28
2018-03-28T18:03:24.398Z,98278.28
2018-03-28T18:05:53.977Z,98289.85
2018-03-28T18:08:24.266Z,98303.88
2018-03-28T18:10:54.166Z,98306.14
2018-03-28T18:13:23.448Z,98294.40
2018-03-28T18:15:52.487Z,98290.41
2018-03-28T18:18:22.415Z,98290.82
2018-03-28T18:20:51.373Z,98290.25
2018-03-28T18:23:20.312Z,98297.09
2018-03-28T18:25:50.770Z,98307.55
2018-03-28T18:28:20.049Z,98314.96
2018-03-28T18:30:49.677Z,98314.03
2018-03-28T18:33:19.413Z,98317.22
2018-03-28T18:35:50.474Z,98318.34
2018-03-28T18:38:19.984Z,98332.20
2018-03-28T18:40:49.013Z,98341.20
2018-03-28T18:43:18.003Z,98332.80
2018-03-28T18:45:47.006Z,98336.83
2018-03-28T18:48:15.917Z,98329.86
2018-03-28T18:50:44.856Z,98342.89
2018-03-28T18:53:14.906Z,98339.60
2018-03-28T18:55:44.029Z,98341.21
2018-03-28T18:58:14.530Z,98339.47
2018-03-28T19:00:44.130Z,98342.59
2018-03-28T19:03:13.241Z,98342.33
2018-03-28T19:05:43.045Z,98348.52
2018-03-28T19:08:13.440Z,98342.72
2018-03-28T19:10:42.667Z,98347.47
2018-03-28T19:13:12.232Z,98350.70
2018-03-28T19:15:43.016Z,98355.81
2018-03-28T19:18:12.749Z,98361.59
2018-03-28T19:20:41.767Z,98355.57
2018-03-28T19:23:14.224Z,98359.70
2018-03-28T19:25:43.510Z,98367.73
2018-03-28T19:28:13.354Z,98373.86
2018-03-28T19:30:42.518Z,98373.30
2018-03-28T19:33:12.353Z,98368.88
2018-03-28T19:35:42.166Z,98370.09
2018-03-28T19:38:11.027Z,98376.91
2018-03-28T19:40:40.028Z,98367.56
2018-03-28T19:43:09.298Z,98374.25
2018-03-28T19:45:38.333Z,98376.38
2018-03-28T19:48:07.370Z,98380.08
2018-03-28T19:50:38.185Z,98382.18
2018-03-28T19:53:07.569Z,98386.53
2018-03-28T19:55:36.840Z,98382.70
2018-03-28T19:58:05.978Z,98391.77
2018-03-28T20:00:35.284Z,98383.50
2018-03-28T20:03:05.259Z,98397.77
2018-03-28T20:05:34.570Z,98387.66
2018-03-28T20:08:05.517Z,98387.43
2018-03-28T20:10:34.552Z,98395.27
2018-03-28T20:13:04.828Z,98400.93
2018-03-28T20:15:34.893Z,98401.09
2018-03-28T20:18:05.041Z,98396.55
2018-03-28T20:20:34.812Z,98387.19
2018-03-28T20:23:04.269Z,98397.48
2018-03-28T20:25:33.642Z,98393.05
2018-03-28T20:28:02.917Z,98402.81
2018-03-28T20:30:31.924Z,98403.68
2018-03-28T20:33:01.000Z,98408.11
2018-03-28T20:35:30.233Z,98413.65
2018-03-28T20:37:59.385Z,98423.31
2018-03-28T20:40:28.576Z,98413.05
2018-03-28T20:42:59.464Z,98414.17
2018-03-28T20:45:29.389Z,98416.05
2018-03-28T20:47:59.805Z,98415.63
2018-03-28T20:50:29.081Z,98413.15
2018-03-28T20:52:58.867Z,98425.11
2018-03-28T20:55:28.612Z,98431.84
2018-03-28T20:57:58.142Z,98429.65
2018-03-28T21:00:27.674Z,98424.05
2018-03-28T21:02:56.826Z,98421.80
2018-03-28T21:05:26.920Z,98426.98
2018-03-28T21:07:56.301Z,98417.63
2018-03-28T21:10:26.658Z,98409.35
2018-03-28T21:12:55.538Z,98411.91
2018-03-28T21:15:25.107Z,98424.02
2018-03-28T21:17:53.936Z,98418.50
2018-03-28T21:20:24.055Z,98407.56
2018-03-28T21:22:53.262Z,98404.53
2018-03-28T21:25:22.691Z,98397.11
2018-03-28T21:27:52.571Z,98396.83
2018-03-28T21:30:21.576Z,98398.36
2018-03-28T21:32:50.549Z,98384.26
2018-03-28T21:35:20.440Z,98380.59
2018-03-28T21:37:50.785Z,98386.41
2018-03-28T21:40:20.241Z,98381.59
2018-03-28T21:42:48.930Z,98378.63
2018-03-28T21:45:18.313Z,98377.89
2018-03-28T21:47:48.173Z,98378.95
2018-03-28T21:50:17.722Z,98373.72
2018-03-28T21:52:46.666Z,98375.53
2018-03-28T21:55:16.110Z,98373.48
2018-03-28T21:57:45.190Z,98374.32
2018-03-28T22:00:14.927Z,98374.80
2018-03-28T22:02:44.655Z,98363.67
2018-03-28T22:05:16.774Z,98371.84
2018-03-28T22:07:45.732Z,98365.06
2018-03-28T22:10:14.480Z,98363.66
2018-03-28T22:12:43.226Z,98358.20
2018-03-28T22:15:13.534Z,98364.22
2018-03-28T22:17:42.198Z,98358.06
2018-03-28T22:20:15.668Z,98357.17
2018-03-28T22:22:44.245Z,98358.42
2018-03-28T22:25:13.483Z,98364.16
2018-03-28T22:27:44.521Z,98360.72
2018-03-28T22:30:15.536Z,98357.38
2018-03-28T22:32:45.113Z,98378.18
2018-03-28T22:35:13.776Z,98370.59
2018-03-28T22:37:43.183Z,98377.70
2018-03-28T22:40:13.048Z,98370.83
2018-03-28T22:42:41.975Z,98371.30
2018-03-28T22:45:10.807Z,98368.92
2018-03-28T22:47:40.549Z,98381.05
2018-03-28T22:50:09.271Z,98380.80
2018-03-28T22:52:40.213Z,98371.13
2018-03-28T22:55:10.164Z,98376.75
2018-03-28T22:57:39.415Z,98362.00
2018-03-28T23:00:08.300Z,98359.19
2018-03-28T23:02:38.302Z,98365.22
2018-03-28T23:05:07.178Z,98365.79
2018-03-28T23:07:35.796Z,98366.68
2018-03-28T23:10:04.625Z,98375.34
2018-03-28T23:12:33.789Z,98369.81
2018-03-28T23:15:02.459Z,98362.86
2018-03-28T23:17:32.070Z,98364.16
2018-03-28T23:20:02.118Z,98378.91
2018-03-28T23:22:39.916Z,98369.70
2018-03-28T23:25:09.007Z,98366.65
2018-03-28T23:27:38.026Z,98363.56
2018-03-28T23:30:07.368Z,98365.30
2018-03-28T23:32:36.727Z,98377.23
2018-03-28T23:35:05.818Z,98379.16
2018-03-28T23:37:34.666Z,98368.45
2018-03-28T23:40:05.006Z,98365.31
2018-03-28T23:42:34.663Z,98366.48
2018-03-28T23:45:04.911Z,98360.59
2018-03-28T23:47:33.883Z,98353.44
2018-03-28T23:50:02.473Z,98356.56
2018-03-28T23:52:31.676Z,98351.23
2018-03-28T23:55:00.266Z,98346.14
2018-03-28T23:57:29.034Z,98335.77
2018-03-28T23:59:58.295Z,98333.09
